sensor_id;sensor_type;location;lat;lon;timestamp;P1;durP1;ratioP1;P2;durP2;ratioP2
21665;SDS011;10994;45.486;9.190;2023-02-28T00:00:29;7.07;;;5.43;;
21665;SDS011;10994;45.486;9.190;2023-02-28T00:02:56;8.13;;;6.03;;
21665;SDS011;10994;45.486;9.190;2023-02-28T00:05:22;7.33;;;5.30;;
21665;SDS011;10994;45.486;9.190;2023-02-28T00:07:49;8.00;;;5.43;;
21665;SDS011;10994;45.486;9.190;2023-02-28T00:10:16;5.97;;;5.00;;
21665;SDS011;10994;45.486;9.190;2023-02-28T00:12:48;5.60;;;4.70;;
21665;SDS011;10994;45.486;9.190;2023-02-28T00:15:14;5.73;;;4.90;;
21665;SDS011;10994;45.486;9.190;2023-02-28T00:17:40;5.57;;;4.07;;
21665;SDS011;10994;45.486;9.190;2023-02-28T00:20:06;6.30;;;3.90;;
21665;SDS011;10994;45.486;9.190;2023-02-28T00:22:37;7.90;;;4.37;;
21665;SDS011;10994;45.486;9.190;2023-02-28T00:25:04;6.67;;;4.07;;
21665;SDS011;10994;45.486;9.190;2023-02-28T00:27:32;6.00;;;3.73;;
21665;SDS011;10994;45.486;9.190;2023-02-28T00:29:58;5.83;;;3.80;;
21665;SDS011;10994;45.486;9.190;2023-02-28T00:32:24;5.23;;;3.80;;
21665;SDS011;10994;45.486;9.190;2023-02-28T00:34:50;7.60;;;4.03;;
21665;SDS011;10994;45.486;9.190;2023-02-28T00:37:16;5.90;;;3.70;;
21665;SDS011;10994;45.486;9.190;2023-02-28T00:39:42;6.47;;;4.50;;
21665;SDS011;10994;45.486;9.190;2023-02-28T00:42:08;4.63;;;3.50;;
21665;SDS011;10994;45.486;9.190;2023-02-28T00:44:35;8.97;;;4.37;;
21665;SDS011;10994;45.486;9.190;2023-02-28T00:47:01;5.00;;;3.80;;
21665;SDS011;10994;45.486;9.190;2023-02-28T00:49:27;8.13;;;4.33;;
21665;SDS011;10994;45.486;9.190;2023-02-28T00:51:53;8.80;;;3.97;;
21665;SDS011;10994;45.486;9.190;2023-02-28T00:54:20;6.27;;;4.33;;
21665;SDS011;10994;45.486;9.190;2023-02-28T00:56:46;7.27;;;4.17;;
21665;SDS011;10994;45.486;9.190;2023-02-28T00:59:13;8.10;;;4.63;;
21665;SDS011;10994;45.486;9.190;2023-02-28T01:01:39;6.03;;;3.90;;
21665;SDS011;10994;45.486;9.190;2023-02-28T01:04:05;5.70;;;4.23;;
21665;SDS011;10994;45.486;9.190;2023-02-28T01:06:31;5.20;;;3.90;;
21665;SDS011;10994;45.486;9.190;2023-02-28T01:08:58;6.70;;;4.27;;
21665;SDS011;10994;45.486;9.190;2023-02-28T01:11:25;7.43;;;4.23;;
21665;SDS011;10994;45.486;9.190;2023-02-28T01:13:51;10.00;;;4.97;;
21665;SDS011;10994;45.486;9.190;2023-02-28T01:16:18;6.97;;;4.70;;
21665;SDS011;10994;45.486;9.190;2023-02-28T01:18:44;7.40;;;4.60;;
21665;SDS011;10994;45.486;9.190;2023-02-28T01:21:11;6.10;;;4.17;;
21665;SDS011;10994;45.486;9.190;2023-02-28T01:23:38;5.73;;;4.70;;
21665;SDS011;10994;45.486;9.190;2023-02-28T01:26:14;5.27;;;4.27;;
21665;SDS011;10994;45.486;9.190;2023-02-28T01:28:42;8.23;;;4.40;;
21665;SDS011;10994;45.486;9.190;2023-02-28T01:31:08;8.07;;;5.07;;
21665;SDS011;10994;45.486;9.190;2023-02-28T01:33:36;5.27;;;4.03;;
21665;SDS011;10994;45.486;9.190;2023-02-28T01:36:04;5.43;;;4.23;;
21665;SDS011;10994;45.486;9.190;2023-02-28T01:38:31;5.17;;;4.47;;
21665;SDS011;10994;45.486;9.190;2023-02-28T01:40:57;6.67;;;4.77;;
21665;SDS011;10994;45.486;9.190;2023-02-28T01:43:24;7.70;;;5.17;;
21665;SDS011;10994;45.486;9.190;2023-02-28T01:45:54;6.20;;;4.50;;
21665;SDS011;10994;45.486;9.190;2023-02-28T01:48:25;5.13;;;4.30;;
21665;SDS011;10994;45.486;9.190;2023-02-28T01:50:51;6.37;;;4.73;;
21665;SDS011;10994;45.486;9.190;2023-02-28T01:53:19;6.17;;;4.93;;
21665;SDS011;10994;45.486;9.190;2023-02-28T01:55:48;5.43;;;4.70;;
21665;SDS011;10994;45.486;9.190;2023-02-28T01:58:16;5.07;;;4.30;;
21665;SDS011;10994;45.486;9.190;2023-02-28T02:00:42;7.77;;;4.93;;
21665;SDS011;10994;45.486;9.190;2023-02-28T02:03:10;7.13;;;4.30;;
21665;SDS011;10994;45.486;9.190;2023-02-28T02:05:38;4.67;;;4.00;;
21665;SDS011;10994;45.486;9.190;2023-02-28T02:08:09;8.13;;;4.47;;
21665;SDS011;10994;45.486;9.190;2023-02-28T02:10:41;5.77;;;4.33;;
21665;SDS011;10994;45.486;9.190;2023-02-28T02:18:40;6.23;;;4.23;;
21665;SDS011;10994;45.486;9.190;2023-02-28T02:21:17;8.00;;;4.77;;
21665;SDS011;10994;45.486;9.190;2023-02-28T02:26:41;5.80;;;4.43;;
21665;SDS011;10994;45.486;9.190;2023-02-28T02:32:13;5.80;;;4.07;;
21665;SDS011;10994;45.486;9.190;2023-02-28T02:39:58;5.73;;;4.93;;
21665;SDS011;10994;45.486;9.190;2023-02-28T02:42:36;7.47;;;4.70;;
21665;SDS011;10994;45.486;9.190;2023-02-28T02:45:06;6.57;;;4.67;;
21665;SDS011;10994;45.486;9.190;2023-02-28T02:47:33;6.30;;;4.20;;
21665;SDS011;10994;45.486;9.190;2023-02-28T02:50:03;6.03;;;4.33;;
21665;SDS011;10994;45.486;9.190;2023-02-28T02:52:37;6.07;;;4.53;;
21665;SDS011;10994;45.486;9.190;2023-02-28T02:55:06;5.90;;;4.47;;
21665;SDS011;10994;45.486;9.190;2023-02-28T02:57:34;5.73;;;4.80;;
21665;SDS011;10994;45.486;9.190;2023-02-28T03:00:02;5.77;;;4.47;;
21665;SDS011;10994;45.486;9.190;2023-02-28T03:02:30;5.13;;;4.03;;
21665;SDS011;10994;45.486;9.190;2023-02-28T03:05:00;5.77;;;4.30;;
21665;SDS011;10994;45.486;9.190;2023-02-28T03:07:27;6.43;;;4.70;;
21665;SDS011;10994;45.486;9.190;2023-02-28T03:09:54;5.67;;;4.10;;
21665;SDS011;10994;45.486;9.190;2023-02-28T03:12:20;5.53;;;4.10;;
21665;SDS011;10994;45.486;9.190;2023-02-28T03:19:55;5.93;;;4.23;;
21665;SDS011;10994;45.486;9.190;2023-02-28T03:22:46;5.10;;;4.03;;
21665;SDS011;10994;45.486;9.190;2023-02-28T03:25:29;5.63;;;4.70;;
21665;SDS011;10994;45.486;9.190;2023-02-28T03:28:14;5.20;;;4.23;;
21665;SDS011;10994;45.486;9.190;2023-02-28T03:30:51;6.77;;;4.63;;
21665;SDS011;10994;45.486;9.190;2023-02-28T03:33:23;7.47;;;4.77;;
21665;SDS011;10994;45.486;9.190;2023-02-28T03:35:52;6.10;;;4.73;;
21665;SDS011;10994;45.486;9.190;2023-02-28T03:41:06;8.10;;;5.30;;
21665;SDS011;10994;45.486;9.190;2023-02-28T03:43:35;5.17;;;4.53;;
21665;SDS011;10994;45.486;9.190;2023-02-28T03:46:05;7.97;;;4.67;;
21665;SDS011;10994;45.486;9.190;2023-02-28T03:48:35;8.47;;;4.60;;
21665;SDS011;10994;45.486;9.190;2023-02-28T03:51:03;4.73;;;4.20;;
21665;SDS011;10994;45.486;9.190;2023-02-28T03:53:35;5.70;;;4.57;;
21665;SDS011;10994;45.486;9.190;2023-02-28T04:01:23;6.33;;;4.73;;
21665;SDS011;10994;45.486;9.190;2023-02-28T04:03:51;5.50;;;4.33;;
21665;SDS011;10994;45.486;9.190;2023-02-28T04:06:18;6.13;;;4.73;;
21665;SDS011;10994;45.486;9.190;2023-02-28T04:08:45;6.63;;;4.60;;
21665;SDS011;10994;45.486;9.190;2023-02-28T04:11:15;7.30;;;4.70;;
21665;SDS011;10994;45.486;9.190;2023-02-28T04:13:42;5.80;;;4.03;;
21665;SDS011;10994;45.486;9.190;2023-02-28T04:16:08;6.77;;;5.00;;
21665;SDS011;10994;45.486;9.190;2023-02-28T04:18:40;5.50;;;4.13;;
21665;SDS011;10994;45.486;9.190;2023-02-28T04:21:08;4.50;;;3.80;;
21665;SDS011;10994;45.486;9.190;2023-02-28T04:23:34;5.60;;;4.27;;
21665;SDS011;10994;45.486;9.190;2023-02-28T04:26:00;5.60;;;4.30;;
21665;SDS011;10994;45.486;9.190;2023-02-28T04:28:26;5.97;;;4.50;;
21665;SDS011;10994;45.486;9.190;2023-02-28T04:30:56;5.87;;;4.73;;
21665;SDS011;10994;45.486;9.190;2023-02-28T04:33:22;5.40;;;4.30;;
21665;SDS011;10994;45.486;9.190;2023-02-28T04:35:48;7.67;;;4.57;;
21665;SDS011;10994;45.486;9.190;2023-02-28T04:38:23;6.73;;;4.37;;
21665;SDS011;10994;45.486;9.190;2023-02-28T04:40:49;5.17;;;4.20;;
21665;SDS011;10994;45.486;9.190;2023-02-28T04:43:15;8.33;;;4.30;;
21665;SDS011;10994;45.486;9.190;2023-02-28T04:45:41;7.90;;;4.67;;
21665;SDS011;10994;45.486;9.190;2023-02-28T04:48:07;5.33;;;4.70;;
21665;SDS011;10994;45.486;9.190;2023-02-28T04:50:33;6.40;;;4.00;;
21665;SDS011;10994;45.486;9.190;2023-02-28T04:52:59;5.87;;;4.60;;
21665;SDS011;10994;45.486;9.190;2023-02-28T04:55:25;6.13;;;4.17;;
21665;SDS011;10994;45.486;9.190;2023-02-28T04:57:51;6.33;;;4.27;;
21665;SDS011;10994;45.486;9.190;2023-02-28T05:00:17;6.10;;;4.27;;
21665;SDS011;10994;45.486;9.190;2023-02-28T05:02:43;5.87;;;4.00;;
21665;SDS011;10994;45.486;9.190;2023-02-28T05:05:09;5.60;;;4.53;;
21665;SDS011;10994;45.486;9.190;2023-02-28T05:07:41;6.20;;;4.33;;
21665;SDS011;10994;45.486;9.190;2023-02-28T05:10:07;14.00;;;5.83;;
21665;SDS011;10994;45.486;9.190;2023-02-28T05:12:34;5.20;;;4.03;;
21665;SDS011;10994;45.486;9.190;2023-02-28T05:15:00;6.13;;;4.63;;
21665;SDS011;10994;45.486;9.190;2023-02-28T05:17:27;4.60;;;4.07;;
21665;SDS011;10994;45.486;9.190;2023-02-28T05:19:53;4.93;;;4.40;;
21665;SDS011;10994;45.486;9.190;2023-02-28T05:22:19;7.10;;;4.50;;
21665;SDS011;10994;45.486;9.190;2023-02-28T05:24:45;5.40;;;4.13;;
21665;SDS011;10994;45.486;9.190;2023-02-28T05:27:11;6.57;;;4.33;;
21665;SDS011;10994;45.486;9.190;2023-02-28T05:29:37;5.70;;;4.57;;
21665;SDS011;10994;45.486;9.190;2023-02-28T05:32:12;5.57;;;4.17;;
21665;SDS011;10994;45.486;9.190;2023-02-28T05:34:38;9.50;;;4.80;;
21665;SDS011;10994;45.486;9.190;2023-02-28T05:37:05;13.77;;;5.50;;
21665;SDS011;10994;45.486;9.190;2023-02-28T05:39:32;7.03;;;5.30;;
21665;SDS011;10994;45.486;9.190;2023-02-28T05:41:58;6.17;;;4.53;;
21665;SDS011;10994;45.486;9.190;2023-02-28T05:44:24;6.53;;;4.67;;
21665;SDS011;10994;45.486;9.190;2023-02-28T05:46:50;6.50;;;5.00;;
21665;SDS011;10994;45.486;9.190;2023-02-28T05:49:16;6.63;;;5.13;;
21665;SDS011;10994;45.486;9.190;2023-02-28T05:51:42;6.30;;;5.03;;
21665;SDS011;10994;45.486;9.190;2023-02-28T05:54:08;6.63;;;4.93;;
21665;SDS011;10994;45.486;9.190;2023-02-28T05:56:34;7.03;;;4.60;;
21665;SDS011;10994;45.486;9.190;2023-02-28T05:59:02;6.90;;;4.83;;
21665;SDS011;10994;45.486;9.190;2023-02-28T06:01:33;6.00;;;4.43;;
21665;SDS011;10994;45.486;9.190;2023-02-28T06:04:00;6.40;;;4.47;;
21665;SDS011;10994;45.486;9.190;2023-02-28T06:06:26;6.17;;;4.83;;
21665;SDS011;10994;45.486;9.190;2023-02-28T06:08:52;7.07;;;4.80;;
21665;SDS011;10994;45.486;9.190;2023-02-28T06:11:19;7.87;;;5.57;;
21665;SDS011;10994;45.486;9.190;2023-02-28T06:13:45;7.03;;;4.97;;
21665;SDS011;10994;45.486;9.190;2023-02-28T06:16:11;6.60;;;4.90;;
21665;SDS011;10994;45.486;9.190;2023-02-28T06:18:38;7.70;;;4.87;;
21665;SDS011;10994;45.486;9.190;2023-02-28T06:21:04;5.60;;;5.03;;
21665;SDS011;10994;45.486;9.190;2023-02-28T06:23:30;7.10;;;5.40;;
21665;SDS011;10994;45.486;9.190;2023-02-28T06:25:56;6.73;;;5.20;;
21665;SDS011;10994;45.486;9.190;2023-02-28T06:28:23;6.47;;;5.27;;
21665;SDS011;10994;45.486;9.190;2023-02-28T06:30:50;8.43;;;5.33;;
21665;SDS011;10994;45.486;9.190;2023-02-28T06:33:16;7.03;;;5.27;;
21665;SDS011;10994;45.486;9.190;2023-02-28T06:35:46;7.20;;;5.10;;
21665;SDS011;10994;45.486;9.190;2023-02-28T06:38:13;7.53;;;5.40;;
21665;SDS011;10994;45.486;9.190;2023-02-28T06:40:39;7.27;;;6.00;;
21665;SDS011;10994;45.486;9.190;2023-02-28T06:43:05;7.80;;;5.53;;
21665;SDS011;10994;45.486;9.190;2023-02-28T06:45:31;7.03;;;5.67;;
21665;SDS011;10994;45.486;9.190;2023-02-28T06:47:57;10.43;;;5.30;;
21665;SDS011;10994;45.486;9.190;2023-02-28T06:50:25;8.60;;;6.17;;
21665;SDS011;10994;45.486;9.190;2023-02-28T06:52:52;11.97;;;5.17;;
21665;SDS011;10994;45.486;9.190;2023-02-28T06:55:19;6.43;;;5.50;;
21665;SDS011;10994;45.486;9.190;2023-02-28T06:57:45;10.10;;;6.10;;
21665;SDS011;10994;45.486;9.190;2023-02-28T07:00:14;9.67;;;5.47;;
21665;SDS011;10994;45.486;9.190;2023-02-28T07:02:40;11.03;;;6.20;;
21665;SDS011;10994;45.486;9.190;2023-02-28T07:05:07;9.60;;;5.77;;
21665;SDS011;10994;45.486;9.190;2023-02-28T07:07:33;8.90;;;6.43;;
21665;SDS011;10994;45.486;9.190;2023-02-28T07:10:02;7.00;;;5.53;;
21665;SDS011;10994;45.486;9.190;2023-02-28T07:12:28;12.70;;;9.87;;
21665;SDS011;10994;45.486;9.190;2023-02-28T07:14:54;12.60;;;5.77;;
21665;SDS011;10994;45.486;9.190;2023-02-28T07:17:20;7.90;;;6.20;;
21665;SDS011;10994;45.486;9.190;2023-02-28T07:19:46;8.00;;;6.23;;
21665;SDS011;10994;45.486;9.190;2023-02-28T07:22:12;9.47;;;7.50;;
21665;SDS011;10994;45.486;9.190;2023-02-28T07:24:39;9.90;;;6.40;;
21665;SDS011;10994;45.486;9.190;2023-02-28T07:27:07;6.77;;;6.07;;
21665;SDS011;10994;45.486;9.190;2023-02-28T07:29:33;13.90;;;10.23;;
21665;SDS011;10994;45.486;9.190;2023-02-28T07:31:59;10.37;;;6.70;;
21665;SDS011;10994;45.486;9.190;2023-02-28T07:34:25;9.70;;;6.83;;
21665;SDS011;10994;45.486;9.190;2023-02-28T07:36:57;11.03;;;7.43;;
21665;SDS011;10994;45.486;9.190;2023-02-28T07:39:23;11.57;;;7.23;;
21665;SDS011;10994;45.486;9.190;2023-02-28T07:41:49;10.13;;;7.20;;
21665;SDS011;10994;45.486;9.190;2023-02-28T07:44:15;8.20;;;6.60;;
21665;SDS011;10994;45.486;9.190;2023-02-28T07:46:41;7.53;;;6.53;;
21665;SDS011;10994;45.486;9.190;2023-02-28T07:49:07;13.60;;;7.37;;
21665;SDS011;10994;45.486;9.190;2023-02-28T07:51:33;9.97;;;7.57;;
21665;SDS011;10994;45.486;9.190;2023-02-28T07:53:59;10.57;;;7.27;;
21665;SDS011;10994;45.486;9.190;2023-02-28T07:56:25;11.70;;;7.77;;
21665;SDS011;10994;45.486;9.190;2023-02-28T07:58:51;13.47;;;7.43;;
21665;SDS011;10994;45.486;9.190;2023-02-28T08:01:18;12.70;;;7.97;;
21665;SDS011;10994;45.486;9.190;2023-02-28T08:03:44;10.03;;;7.77;;
21665;SDS011;10994;45.486;9.190;2023-02-28T08:06:15;10.73;;;7.67;;
21665;SDS011;10994;45.486;9.190;2023-02-28T08:08:42;14.07;;;7.63;;
21665;SDS011;10994;45.486;9.190;2023-02-28T08:11:09;11.80;;;8.13;;
21665;SDS011;10994;45.486;9.190;2023-02-28T08:13:35;12.40;;;7.77;;
21665;SDS011;10994;45.486;9.190;2023-02-28T08:16:01;12.00;;;7.43;;
21665;SDS011;10994;45.486;9.190;2023-02-28T08:18:27;13.10;;;7.53;;
21665;SDS011;10994;45.486;9.190;2023-02-28T08:20:53;10.37;;;6.93;;
21665;SDS011;10994;45.486;9.190;2023-02-28T08:23:20;10.23;;;7.40;;
21665;SDS011;10994;45.486;9.190;2023-02-28T08:25:52;11.57;;;7.30;;
21665;SDS011;10994;45.486;9.190;2023-02-28T08:28:18;10.33;;;7.73;;
21665;SDS011;10994;45.486;9.190;2023-02-28T08:30:44;11.27;;;8.20;;
21665;SDS011;10994;45.486;9.190;2023-02-28T08:33:10;9.10;;;7.83;;
21665;SDS011;10994;45.486;9.190;2023-02-28T08:35:36;9.90;;;7.33;;
21665;SDS011;10994;45.486;9.190;2023-02-28T08:38:02;9.43;;;7.13;;
21665;SDS011;10994;45.486;9.190;2023-02-28T08:40:28;11.60;;;7.27;;
21665;SDS011;10994;45.486;9.190;2023-02-28T08:42:54;15.60;;;7.80;;
21665;SDS011;10994;45.486;9.190;2023-02-28T08:45:21;9.57;;;6.73;;
21665;SDS011;10994;45.486;9.190;2023-02-28T08:47:47;11.40;;;7.03;;
21665;SDS011;10994;45.486;9.190;2023-02-28T08:50:13;11.73;;;6.63;;
21665;SDS011;10994;45.486;9.190;2023-02-28T08:52:43;13.03;;;7.77;;
21665;SDS011;10994;45.486;9.190;2023-02-28T08:55:10;17.87;;;9.17;;
21665;SDS011;10994;45.486;9.190;2023-02-28T08:57:36;9.77;;;6.87;;
21665;SDS011;10994;45.486;9.190;2023-02-28T09:00:03;9.07;;;6.50;;
21665;SDS011;10994;45.486;9.190;2023-02-28T09:02:30;9.90;;;7.43;;
21665;SDS011;10994;45.486;9.190;2023-02-28T09:04:56;10.77;;;7.90;;
21665;SDS011;10994;45.486;9.190;2023-02-28T09:07:23;8.13;;;6.83;;
21665;SDS011;10994;45.486;9.190;2023-02-28T09:09:49;9.40;;;7.20;;
21665;SDS011;10994;45.486;9.190;2023-02-28T09:12:22;11.87;;;7.13;;
21665;SDS011;10994;45.486;9.190;2023-02-28T09:14:48;13.53;;;7.67;;
21665;SDS011;10994;45.486;9.190;2023-02-28T09:17:14;9.80;;;7.13;;
21665;SDS011;10994;45.486;9.190;2023-02-28T09:19:40;8.67;;;6.77;;
21665;SDS011;10994;45.486;9.190;2023-02-28T09:22:07;10.00;;;7.27;;
21665;SDS011;10994;45.486;9.190;2023-02-28T09:24:35;10.67;;;7.33;;
21665;SDS011;10994;45.486;9.190;2023-02-28T09:27:01;7.03;;;6.33;;
21665;SDS011;10994;45.486;9.190;2023-02-28T09:29:27;10.63;;;6.47;;
21665;SDS011;10994;45.486;9.190;2023-02-28T09:31:53;11.73;;;6.77;;
21665;SDS011;10994;45.486;9.190;2023-02-28T09:34:19;9.83;;;6.87;;
21665;SDS011;10994;45.486;9.190;2023-02-28T09:36:45;8.80;;;6.63;;
21665;SDS011;10994;45.486;9.190;2023-02-28T09:39:11;9.33;;;6.50;;
21665;SDS011;10994;45.486;9.190;2023-02-28T09:41:47;10.30;;;6.00;;
21665;SDS011;10994;45.486;9.190;2023-02-28T09:44:37;9.40;;;7.40;;
21665;SDS011;10994;45.486;9.190;2023-02-28T09:47:05;8.33;;;6.17;;
21665;SDS011;10994;45.486;9.190;2023-02-28T09:49:36;8.50;;;6.30;;
21665;SDS011;10994;45.486;9.190;2023-02-28T09:52:04;10.07;;;6.70;;
21665;SDS011;10994;45.486;9.190;2023-02-28T09:54:34;7.97;;;6.47;;
21665;SDS011;10994;45.486;9.190;2023-02-28T09:57:01;9.00;;;6.23;;
21665;SDS011;10994;45.486;9.190;2023-02-28T09:59:41;9.47;;;6.07;;
21665;SDS011;10994;45.486;9.190;2023-02-28T10:10:07;8.33;;;6.53;;
21665;SDS011;10994;45.486;9.190;2023-02-28T10:12:40;9.67;;;7.17;;
21665;SDS011;10994;45.486;9.190;2023-02-28T10:15:12;10.40;;;6.97;;
21665;SDS011;10994;45.486;9.190;2023-02-28T10:17:40;11.27;;;7.13;;
21665;SDS011;10994;45.486;9.190;2023-02-28T10:20:15;9.77;;;7.87;;
21665;SDS011;10994;45.486;9.190;2023-02-28T10:25:32;10.80;;;7.37;;
21665;SDS011;10994;45.486;9.190;2023-02-28T10:28:00;12.50;;;8.07;;
21665;SDS011;10994;45.486;9.190;2023-02-28T10:30:27;8.07;;;6.90;;
21665;SDS011;10994;45.486;9.190;2023-02-28T10:32:53;8.90;;;7.37;;
21665;SDS011;10994;45.486;9.190;2023-02-28T10:35:21;9.33;;;7.10;;
21665;SDS011;10994;45.486;9.190;2023-02-28T10:37:48;10.83;;;7.60;;
21665;SDS011;10994;45.486;9.190;2023-02-28T10:42:58;10.27;;;7.67;;
21665;SDS011;10994;45.486;9.190;2023-02-28T10:45:24;10.53;;;7.40;;
21665;SDS011;10994;45.486;9.190;2023-02-28T10:50:51;12.33;;;7.93;;
21665;SDS011;10994;45.486;9.190;2023-02-28T10:55:36;10.13;;;8.47;;
21665;SDS011;10994;45.486;9.190;2023-02-28T10:58:02;12.37;;;7.80;;
21665;SDS011;10994;45.486;9.190;2023-02-28T11:00:32;14.37;;;9.10;;
21665;SDS011;10994;45.486;9.190;2023-02-28T11:02:59;14.57;;;8.60;;
21665;SDS011;10994;45.486;9.190;2023-02-28T11:05:27;14.90;;;8.87;;
21665;SDS011;10994;45.486;9.190;2023-02-28T11:07:54;11.60;;;8.77;;
21665;SDS011;10994;45.486;9.190;2023-02-28T11:10:21;12.17;;;7.37;;
21665;SDS011;10994;45.486;9.190;2023-02-28T11:12:53;11.23;;;8.40;;
21665;SDS011;10994;45.486;9.190;2023-02-28T11:17:53;12.93;;;10.33;;
21665;SDS011;10994;45.486;9.190;2023-02-28T11:20:23;15.70;;;9.27;;
21665;SDS011;10994;45.486;9.190;2023-02-28T11:22:49;11.63;;;9.33;;
21665;SDS011;10994;45.486;9.190;2023-02-28T11:25:19;11.00;;;9.00;;
21665;SDS011;10994;45.486;9.190;2023-02-28T11:27:48;12.97;;;8.47;;
21665;SDS011;10994;45.486;9.190;2023-02-28T11:32:50;12.63;;;8.90;;
21665;SDS011;10994;45.486;9.190;2023-02-28T11:37:51;10.97;;;9.07;;
21665;SDS011;10994;45.486;9.190;2023-02-28T11:40:18;13.57;;;9.67;;
21665;SDS011;10994;45.486;9.190;2023-02-28T11:45:29;12.77;;;9.57;;
21665;SDS011;10994;45.486;9.190;2023-02-28T11:51:05;14.20;;;9.97;;
21665;SDS011;10994;45.486;9.190;2023-02-28T11:56:05;15.37;;;9.87;;
21665;SDS011;10994;45.486;9.190;2023-02-28T11:58:34;13.97;;;9.60;;
21665;SDS011;10994;45.486;9.190;2023-02-28T12:06:20;13.53;;;11.03;;
21665;SDS011;10994;45.486;9.190;2023-02-28T12:19:04;12.70;;;9.93;;
21665;SDS011;10994;45.486;9.190;2023-02-28T12:21:36;14.00;;;10.20;;
21665;SDS011;10994;45.486;9.190;2023-02-28T12:26:52;13.47;;;10.60;;
21665;SDS011;10994;45.486;9.190;2023-02-28T12:29:20;14.73;;;11.10;;
21665;SDS011;10994;45.486;9.190;2023-02-28T12:31:49;15.67;;;11.50;;
21665;SDS011;10994;45.486;9.190;2023-02-28T12:34:19;13.37;;;10.93;;
21665;SDS011;10994;45.486;9.190;2023-02-28T12:36:46;12.40;;;10.03;;
21665;SDS011;10994;45.486;9.190;2023-02-28T12:39:26;21.37;;;10.83;;
21665;SDS011;10994;45.486;9.190;2023-02-28T12:42:00;23.27;;;11.23;;
21665;SDS011;10994;45.486;9.190;2023-02-28T12:46:55;16.15;;;13.60;;
21665;SDS011;10994;45.486;9.190;2023-02-28T12:49:25;15.33;;;11.50;;
21665;SDS011;10994;45.486;9.190;2023-02-28T12:51:55;13.87;;;11.73;;
21665;SDS011;10994;45.486;9.190;2023-02-28T12:54:27;12.90;;;11.23;;
21665;SDS011;10994;45.486;9.190;2023-02-28T12:59:27;15.67;;;12.07;;
21665;SDS011;10994;45.486;9.190;2023-02-28T13:02:09;15.73;;;12.60;;
21665;SDS011;10994;45.486;9.190;2023-02-28T13:07:29;13.87;;;12.00;;
21665;SDS011;10994;45.486;9.190;2023-02-28T13:10:00;15.27;;;11.67;;
21665;SDS011;10994;45.486;9.190;2023-02-28T13:12:28;12.40;;;10.60;;
21665;SDS011;10994;45.486;9.190;2023-02-28T13:15:07;11.70;;;10.17;;
21665;SDS011;10994;45.486;9.190;2023-02-28T13:17:38;12.73;;;10.73;;
21665;SDS011;10994;45.486;9.190;2023-02-28T13:20:14;13.93;;;11.63;;
21665;SDS011;10994;45.486;9.190;2023-02-28T13:22:47;13.83;;;11.17;;
21665;SDS011;10994;45.486;9.190;2023-02-28T13:27:47;13.73;;;11.37;;
21665;SDS011;10994;45.486;9.190;2023-02-28T13:33:29;14.80;;;11.27;;
21665;SDS011;10994;45.486;9.190;2023-02-28T13:38:44;15.17;;;10.80;;
21665;SDS011;10994;45.486;9.190;2023-02-28T13:46:27;14.20;;;11.57;;
21665;SDS011;10994;45.486;9.190;2023-02-28T13:48:53;15.67;;;11.33;;
21665;SDS011;10994;45.486;9.190;2023-02-28T13:51:38;14.53;;;10.97;;
21665;SDS011;10994;45.486;9.190;2023-02-28T13:54:23;14.47;;;11.63;;
21665;SDS011;10994;45.486;9.190;2023-02-28T14:02:51;12.17;;;10.63;;
21665;SDS011;10994;45.486;9.190;2023-02-28T14:05:28;14.03;;;10.57;;
21665;SDS011;10994;45.486;9.190;2023-02-28T14:07:58;15.87;;;11.57;;
21665;SDS011;10994;45.486;9.190;2023-02-28T14:10:30;13.47;;;11.07;;
21665;SDS011;10994;45.486;9.190;2023-02-28T14:12:59;14.30;;;12.20;;
21665;SDS011;10994;45.486;9.190;2023-02-28T14:15:58;14.73;;;10.63;;
21665;SDS011;10994;45.486;9.190;2023-02-28T14:18:29;13.70;;;11.33;;
21665;SDS011;10994;45.486;9.190;2023-02-28T14:21:11;14.67;;;11.27;;
21665;SDS011;10994;45.486;9.190;2023-02-28T14:32:33;16.53;;;11.00;;
21665;SDS011;10994;45.486;9.190;2023-02-28T14:35:12;15.40;;;11.90;;
21665;SDS011;10994;45.486;9.190;2023-02-28T14:37:47;15.73;;;11.47;;
21665;SDS011;10994;45.486;9.190;2023-02-28T14:40:17;14.37;;;11.47;;
21665;SDS011;10994;45.486;9.190;2023-02-28T14:43:02;17.13;;;11.93;;
21665;SDS011;10994;45.486;9.190;2023-02-28T14:45:30;13.80;;;11.33;;
21665;SDS011;10994;45.486;9.190;2023-02-28T14:47:58;15.33;;;12.07;;
21665;SDS011;10994;45.486;9.190;2023-02-28T14:50:32;13.40;;;11.13;;
21665;SDS011;10994;45.486;9.190;2023-02-28T14:53:00;14.13;;;10.73;;
21665;SDS011;10994;45.486;9.190;2023-02-28T14:55:46;12.23;;;10.63;;
21665;SDS011;10994;45.486;9.190;2023-02-28T14:58:29;17.63;;;11.70;;
21665;SDS011;10994;45.486;9.190;2023-02-28T15:01:00;16.13;;;12.60;;
21665;SDS011;10994;45.486;9.190;2023-02-28T15:06:21;16.03;;;11.50;;
21665;SDS011;10994;45.486;9.190;2023-02-28T15:08:48;15.13;;;11.53;;
21665;SDS011;10994;45.486;9.190;2023-02-28T15:11:31;13.90;;;11.57;;
21665;SDS011;10994;45.486;9.190;2023-02-28T15:13:57;15.63;;;11.57;;
21665;SDS011;10994;45.486;9.190;2023-02-28T15:16:33;14.87;;;11.00;;
21665;SDS011;10994;45.486;9.190;2023-02-28T15:21:45;14.60;;;10.70;;
21665;SDS011;10994;45.486;9.190;2023-02-28T15:27:19;14.67;;;10.10;;
21665;SDS011;10994;45.486;9.190;2023-02-28T15:29:51;14.83;;;11.93;;
21665;SDS011;10994;45.486;9.190;2023-02-28T15:32:23;15.40;;;11.73;;
21665;SDS011;10994;45.486;9.190;2023-02-28T15:34:52;12.60;;;10.57;;
21665;SDS011;10994;45.486;9.190;2023-02-28T15:37:28;15.53;;;11.63;;
21665;SDS011;10994;45.486;9.190;2023-02-28T15:40:04;16.37;;;11.13;;
21665;SDS011;10994;45.486;9.190;2023-02-28T15:42:30;15.97;;;11.60;;
21665;SDS011;10994;45.486;9.190;2023-02-28T15:44:56;14.53;;;11.10;;
21665;SDS011;10994;45.486;9.190;2023-02-28T15:47:23;12.70;;;10.37;;
21665;SDS011;10994;45.486;9.190;2023-02-28T15:49:55;15.00;;;12.27;;
21665;SDS011;10994;45.486;9.190;2023-02-28T15:52:41;12.13;;;10.83;;
21665;SDS011;10994;45.486;9.190;2023-02-28T15:55:22;13.17;;;10.20;;
21665;SDS011;10994;45.486;9.190;2023-02-28T15:57:53;21.07;;;16.47;;
21665;SDS011;10994;45.486;9.190;2023-02-28T16:00:23;38.63;;;26.57;;
21665;SDS011;10994;45.486;9.190;2023-02-28T16:02:50;20.37;;;12.10;;
21665;SDS011;10994;45.486;9.190;2023-02-28T16:07:53;17.07;;;12.23;;
21665;SDS011;10994;45.486;9.190;2023-02-28T16:10:20;16.50;;;11.10;;
21665;SDS011;10994;45.486;9.190;2023-02-28T16:12:51;12.00;;;10.00;;
21665;SDS011;10994;45.486;9.190;2023-02-28T16:15:23;11.50;;;10.17;;
21665;SDS011;10994;45.486;9.190;2023-02-28T16:17:53;15.87;;;11.90;;
21665;SDS011;10994;45.486;9.190;2023-02-28T16:20:21;13.60;;;11.47;;
21665;SDS011;10994;45.486;9.190;2023-02-28T16:22:49;14.07;;;10.77;;
21665;SDS011;10994;45.486;9.190;2023-02-28T16:25:15;13.80;;;10.87;;
21665;SDS011;10994;45.486;9.190;2023-02-28T16:27:44;15.63;;;11.73;;
21665;SDS011;10994;45.486;9.190;2023-02-28T16:30:18;15.80;;;10.73;;
21665;SDS011;10994;45.486;9.190;2023-02-28T16:32:47;14.30;;;11.53;;
21665;SDS011;10994;45.486;9.190;2023-02-28T16:35:14;14.27;;;11.43;;
21665;SDS011;10994;45.486;9.190;2023-02-28T16:37:40;15.77;;;12.57;;
21665;SDS011;10994;45.486;9.190;2023-02-28T16:40:07;16.43;;;12.30;;
21665;SDS011;10994;45.486;9.190;2023-02-28T16:42:45;18.33;;;12.80;;
21665;SDS011;10994;45.486;9.190;2023-02-28T16:45:22;17.73;;;13.43;;
21665;SDS011;10994;45.486;9.190;2023-02-28T16:47:49;15.87;;;12.47;;
21665;SDS011;10994;45.486;9.190;2023-02-28T16:50:22;18.80;;;12.33;;
21665;SDS011;10994;45.486;9.190;2023-02-28T16:52:52;17.53;;;11.77;;
21665;SDS011;10994;45.486;9.190;2023-02-28T16:55:19;31.77;;;20.90;;
21665;SDS011;10994;45.486;9.190;2023-02-28T16:57:47;15.20;;;12.80;;